logo
Rechercher aéroport 
image banner adimage banner adimage banner ad
image banner ad

OPZM - ZAMZAMA

Situé à ZAMZAMA, Pakistan

ICAO - , IATA -

Données fournies par Airmate  

Information générale

Coordonnées: N26°44'16" E67°40'2"
Élévation : 124 feet MSL.
Variation magnétique : 2° East
Voir autres Aéroports à Sindh

Données opérationnelles

Special qualification required
Heure actuelle UTC:
Heure actuelle locale:
Météo à : - ( 0 km )
METAR: PADM 220712Z AUTO 02005KT 10SM -RA FEW027 OVC037 04/03 A2966 RMK AO2 P0000
Voir NOTAMs / SUP AIP / TFR affectant cet aéroport [VIEW]
Fréquences de communication: [VIEW]

Pistes:

Identifiant RWYQFULongueur (ft)Largeur (ft)SurfaceLDA (ft)
17524998UNK
35524998UNK

Coordonnées de l'aéroport

Adresse: ZAMZAMA Pakistan

Vue satellite de OPZM